Moro Plt, Maine
Current Conditions -  °F | °C
As of 2:53 AM on Monday 22 Dec 2014 (Local Time) from KHUL Reporting Station
Overcast Overcast  
Wind Chill: 24°   Ceiling: 800
Heat Index: 24°   Visibility: 10mi
Dew Point: 22°   Wind: 0mph
Humidity: 91%   Direction: NA
Pressure: 30.38"   Gusts: NA
Location:  46.2367°N, 68.3001°W
Report Text: KHUL 220753Z AUTO 00000KT 10SM BKN008 OVC031 M04/M06 A3038 RMK AO2 SLP297 T10441056
Loading
Personal Weather Stations






























Interactive Weather Map New forecast layout! Learn more

10-Day Weather Forecast

Advertisements
Track Severe Weather on mobile